Flight Track Log - Related Links

Times and Time Zones

All times are in EDT time to prevent confusion due to time zone crossing. See the TAM8053 flight status page for this flight to view local times or setup timezone preferences in your user account.

Time Position Orientation Groundspeed Altitude Reporting Facility
EDT Latitude Longitude Course Direction KTS MPH feet Rate Location/Type
Tue 10:25:54 AM 25.8010 -80.2950 360° North 88 101  Level FlightAware ADS-B
Tue 10:26:16 AM 25.8020 -80.2800 86° East 140 161 1,125 Level FlightAware ADS-B
Tue 10:26:42 AM 25.8020 -80.2570 90° East 169 194 900 2,204 Climbing FlightAware ADS-B
Tue 10:27:05 AM 25.7980 -80.2390 104° East 170 196 1,800 1,857 Climbing FlightAware ADS-B
Tue 10:27:24 AM 25.7910 -80.2230 116° Southeast 176 203 2,200 1,171 Climbing FlightAware ADS-B
Tue 10:27:46 AM 25.7830 -80.2050 116° Southeast 189 217 2,600 818 Climbing FlightAware ADS-B
Tue 10:28:08 AM 25.7740 -80.1840 115° Southeast 215 247 2,800 789 Climbing FlightAware ADS-B
Tue 10:28:24 AM 25.7660 -80.1660 116° Southeast 237 273 3,100 1,000 Climbing FlightAware ADS-B
Tue 10:28:44 AM 25.7560 -80.1440 117° Southeast 258 297 3,400 1,500 Climbing FlightAware ADS-B
Tue 10:29:04 AM 25.7460 -80.1200 115° Southeast 266 306 4,100 2,167 Climbing FlightAware ADS-B
Tue 10:29:20 AM 25.7410 -80.0980 104° East 270 311 4,700 2,294 Climbing FlightAware ADS-B
Tue 10:29:38 AM 25.7360 -80.0730 103° East 275 316 5,400 2,429 Climbing FlightAware ADS-B
Tue 10:30:02 AM 25.7280 -80.0400 105° East 276 318 6,400 2,318 Climbing FlightAware ADS-B
Tue 10:30:22 AM 25.7220 -80.0120 103° East 282 325 7,100 2,250 Climbing FlightAware ADS-B
Tue 10:30:42 AM 25.7160 -79.9850 104° East 286 329 7,900 2,250 Climbing FlightAware ADS-B
Tue 10:31:02 AM 25.7090 -79.9550 105° East 288 331 8,600 2,100 Climbing FlightAware ADS-B
Tue 10:31:22 AM 25.7030 -79.9270 103° East 292 336 9,300 1,789 Climbing FlightAware ADS-B
Tue 10:31:59 AM 25.6910 -79.8720 104° East 309 356 10,300 1,250 Climbing FlightAware ADS-B
Tue 10:32:34 AM 25.6780 -79.8150 104° East 343 395 10,800 1,183 Climbing FlightAware ADS-B
Tue 10:33:10 AM 25.6630 -79.7510 105° East 361 415 11,700 1,629 Climbing FlightAware ADS-B
Tue 10:33:44 AM 25.6490 -79.6890 104° East 368 423 12,700 1,791 Climbing FlightAware ADS-B
Tue 10:34:17 AM 25.6350 -79.6290 104° East 376 433 13,700 1,588 Climbing FlightAware ADS-B
Tue 10:34:52 AM 25.6200 -79.5610 104° East 388 447 14,500 1,583 Climbing FlightAware ADS-B
Tue 10:35:29 AM 25.6040 -79.4920 104° East 392 451 15,600 1,750 Climbing FlightAware ADS-B
Tue 10:36:04 AM 25.5880 -79.4220 104° East 397 457 16,600 1,606 Climbing FlightAware ADS-B
Tue 10:36:40 AM 25.5710 -79.3500 105° East 402 463 17,500 1,500 Climbing FlightAware ADS-B
Tue 10:37:12 AM 25.5560 -79.2850 104° East 407 468 18,300 1,304 Climbing FlightAware ADS-B
Tue 10:37:49 AM 25.5390 -79.2120 104° East 415 478 19,000 1,114 Climbing FlightAware ADS-B
Tue 10:38:22 AM 25.5240 -79.1440 104° East 421 484 19,600 1,200 Climbing FlightAware ADS-B
Tue 10:38:54 AM 25.5080 -79.0770 105° East 427 491 20,300 1,333 Climbing FlightAware ADS-B
Tue 10:39:34 AM 25.4890 -78.9920 104° East 430 495 21,200 1,271 Climbing FlightAware ADS-B
Tue 10:40:19 AM 25.4670 -78.8960 104° East 433 498 22,100 1,185 Climbing FlightAware ADS-B
Tue 10:40:55 AM 25.4490 -78.8190 104° East 438 504 22,800 1,120 Climbing FlightAware ADS-B
Tue 10:41:34 AM 25.4300 -78.7370 104° East 442 509 23,500 1,114 Climbing FlightAware ADS-B
Tue 10:42:05 AM 25.4130 -78.6640 104° East 448 516 24,100 1,075 Climbing FlightAware ADS-B
Tue 10:42:41 AM 25.3940 -78.5840 105° East 450 518 24,700 643 Climbing FlightAware ADS-B
Tue 10:43:29 AM 25.3730 -78.4900 104° East 454 522 25,000 457 Climbing FlightAware ADS-B
Tue 10:44:13 AM 25.3530 -78.4060 105° East 456 525 25,400 1,169 Climbing FlightAware ADS-B
Tue 10:44:46 AM 25.3270 -78.2990 105° East 468 539 26,500 1,701 Climbing FlightAware ADS-B
Tue 10:45:20 AM 25.3000 -78.2230 111° Southeast 464 534 27,300 1,846 Climbing FlightAware ADS-B
Tue 10:46:04 AM 25.2640 -78.1530 120° Southeast 431 496 28,900 1,421 Climbing FlightAware ADS-B
Tue 10:46:36 AM 25.2280 -78.0850 120° Southeast 435 501 29,100 537 Climbing FlightAware ADS-B
Tue 10:47:11 AM 25.1900 -78.0100 119° Southeast 443 510 29,500 329 Climbing FlightAware ADS-B
Tue 10:47:49 AM 25.1590 -77.9460 118° Southeast 443 510 29,500 750 Level FlightAware ADS-B
Tue 10:48:15 AM 25.1310 -77.8760 114° Southeast 453 521 30,300 1,091 Climbing FlightAware ADS-B
Tue 10:48:55 AM 25.1140 -77.7880 102° East 460 529 30,700 385 Climbing FlightAware ADS-B
Tue 10:49:33 AM 25.1000 -77.7180 102° East 461 531 30,800 80 Climbing FlightAware ADS-B
Tue 10:50:10 AM 25.0860 -77.6450 102° East 461 531 30,800  Level FlightAware ADS-B
Tue 10:50:46 AM 25.0730 -77.5750 102° East 461 531 30,800 743 Level FlightAware ADS-B
Tue 10:51:19 AM 25.0080 -77.4660 123° Southeast 32,000 1,130 Climbing FlightAware ADS-B
Tue 10:51:55 AM 24.9670 -77.3890 120° Southeast 474 545 32,100 80 Climbing FlightAware ADS-B
Tue 10:52:34 AM 24.9270 -77.3220 123° Southeast 474 545 32,100  Level FlightAware ADS-B
Tue 10:53:11 AM 24.8890 -77.2580 123° Southeast 474 545 32,100  Level FlightAware ADS-B
Tue 10:53:45 AM 24.8550 -77.1990 122° Southeast 474 545 32,100  Level FlightAware ADS-B
Tue 10:54:19 AM 24.8200 -77.1410 124° Southeast 474 545 32,100  Level FlightAware ADS-B
Tue 10:54:58 AM 24.7810 -77.0740 123° Southeast 474 545 32,100  Level FlightAware ADS-B
Tue 10:55:36 AM 24.7420 -77.0080 123° Southeast 474 545 32,100  Level FlightAware ADS-B
Tue 10:56:14 AM 24.7040 -76.9430 123° Southeast 474 545 32,100  Level FlightAware ADS-B
Tue 10:56:50 AM 24.6670 -76.8810 123° Southeast 474 545 32,100  Level FlightAware ADS-B
Tue 10:57:27 AM 24.6290 -76.8170 123° Southeast 474 545 32,100  Level FlightAware ADS-B
Tue 10:58:04 AM 24.5920 -76.7540 123° Southeast 474 545 32,100  Level FlightAware ADS-B
Tue 10:58:40 AM 24.5550 -76.6920 123° Southeast 474 545 32,100  Level FlightAware ADS-B
Tue 10:59:16 AM 24.5190 -76.6300 123° Southeast 474 545 32,100  Level FlightAware ADS-B
Tue 10:59:53 AM 24.4810 -76.5660 123° Southeast 474 545 32,100  Level FlightAware ADS-B
Tue 11:00:27 AM 24.4470 -76.5080 123° Southeast 474 545 32,100  Level FlightAware ADS-B
Tue 11:01:02 AM 24.4110 -76.4480 123° Southeast 474 545 32,100  Level FlightAware ADS-B
Tue 11:01:38 AM 24.3750 -76.3860 123° Southeast 474 545 32,100 2,673 Level FlightAware ADS-B
Tue 11:02:52 AM 24.2156 -75.9883 123° Southeast 492 566 37,000 2,194 Climbing Miami Center
Tue 11:03:52 AM 24.1458 -75.8614 121° Southeast 492 566 37,000  Level Miami Center
Tue 11:04:52 AM 24.0758 -75.7322 121° Southeast 492 566 37,000  Level Miami Center
Tue 11:05:52 AM 24.0058 -75.6033 121° Southeast 492 566 37,000  Level Miami Center
Tue 11:06:52 AM 23.9378 -75.4767 120° Southeast 492 566 37,000  Level Miami Center
Tue 11:07:52 AM 23.8678 -75.3478 121° Southeast 492 566 37,000  Level Miami Center
Tue 11:08:52 AM 23.7889 -75.2103 122° Southeast 492 566 37,000  Level Miami Center
Tue 11:09:52 AM 23.7183 -75.0819 121° Southeast 492 566 37,000  Level Miami Center
Tue 11:10:52 AM 23.6481 -74.9581 122° Southeast 487 560 37,000  Level Miami Center
Tue 11:11:52 AM 23.5772 -74.8300 121° Southeast 487 560 37,000  Level Miami Center
Tue 11:12:52 AM 23.5003 -74.7042 124° Southeast 492 566 37,000 -700 Level Miami Center
Tue 11:13:52 AM 23.4275 -74.5833 123° Southeast 492 566 35,600 -1,000 Descending Miami Center
Tue 11:14:52 AM 23.3442 -74.4694 129° Southeast 487 560 35,000 -300 Descending Miami Center
Tue 11:15:52 AM 23.2567 -74.3556 130° Southeast 487 560 35,000  Level Miami Center
Tue 11:17:04 AM 23.1672 -74.2467 132° Southeast 487 560 35,000  Level Miami Center
Tue 11:18:04 AM 23.0664 -74.1111 129° Southeast 487 560 35,000  Level Miami Center
Tue 11:19:04 AM 22.9767 -73.9981 131° Southeast 487 560 35,000  Level Miami Center
Tue 11:20:04 AM 22.8867 -73.8872 131° Southeast 487 560 35,000  Level Miami Center
Tue 11:21:04 AM 22.8011 -73.7767 130° Southeast 487 560 35,000  Level Miami Center
Tue 11:22:04 AM 22.7108 -73.6639 131° Southeast 487 560 35,000  Level Miami Center
Tue 11:23:04 AM 22.6414 -73.5372 121° Southeast 484 557 35,000  Level Miami Center
Tue 11:24:04 AM 22.6144 -73.4547 109° East 470 541 35,000  Level Miami Center
Tue 11:25:04 AM 22.5289 -73.2728 117° Southeast 475 547 35,000  Level Miami Center
Tue 11:26:04 AM 22.5008 -73.1500 104° East 475 547 35,000  Level Miami Center
Tue 11:27:16 AM 22.4783 -73.0044 99° East 466 536 35,000  Level Miami Center
Tue 11:28:16 AM 22.4469 -72.8347 101° East 477 549 35,000  Level Miami Center
Tue 11:29:16 AM 22.4311 -72.7161 98° East 482 555 35,000 200 Level Miami Center
Tue 11:30:16 AM 22.4042 -72.5733 102° East 487 560 35,400 550 Climbing Miami Center
Tue 11:31:16 AM 22.3408 -72.4072 112° Southeast 487 560 36,100 550 Climbing Miami Center
Tue 11:32:16 AM 22.2786 -72.2747 117° Southeast 487 560 36,500 450 Climbing Miami Center
Tue 11:33:16 AM 22.2100 -72.1469 120° Southeast 492 566 37,000 250 Climbing Miami Center
Tue 11:34:16 AM 22.1411 -72.0172 120° Southeast 492 566 37,000  Level Miami Center
Tue 11:35:16 AM 22.0756 -71.9236 127° Southeast 497 572 37,000  Level Miami Center
Tue 11:36:16 AM 21.9667 -71.7889 131° Southeast 497 572 37,000  Level Miami Center
Tue 11:37:16 AM 21.8794 -71.6781 130° Southeast 492 566 37,000  Level Miami Center
Tue 11:43:01 AM 21.3450 -71.0040 130° Southeast 501 577 37,000  Level FlightAware ADS-B
Tue 11:43:35 AM 21.2980 -70.9390 128° Southeast 501 577 37,000  Level FlightAware ADS-B
Tue 11:44:22 AM 21.2390 -70.8530 126° Southeast 501 577 37,000  Level FlightAware ADS-B
Tue 11:45:00 AM 21.1950 -70.7880 126° Southeast 501 577 37,000  Level FlightAware ADS-B
Tue 11:45:34 AM 21.1560 -70.7300 126° Southeast 501 577 37,000  Level FlightAware ADS-B
Tue 11:46:11 AM 21.1130 -70.6670 126° Southeast 501 577 37,000  Level FlightAware ADS-B
Tue 11:46:48 AM 21.0290 -70.5520 128° Southeast 511 588 37,000  Level FlightAware ADS-B
Tue 11:47:17 AM 20.9880 -70.4940 127° Southeast 511 588 37,000  Level FlightAware ADS-B
Tue 11:48:07 AM 20.9180 -70.3940 127° Southeast 510 587 37,000  Level FlightAware ADS-B
Tue 11:48:40 AM 20.8720 -70.3290 127° Southeast 510 587 37,000  Level FlightAware ADS-B
Tue 11:49:11 AM 20.8260 -70.2630 127° Southeast 509 586 37,000  Level FlightAware ADS-B
Tue 11:49:50 AM 20.7780 -70.1940 127° Southeast 508 585 37,000  Level FlightAware ADS-B
Tue 11:50:37 AM 20.7030 -70.0900 128° Southeast 508 585 37,000  Level FlightAware ADS-B
Tue 11:51:25 AM 20.6380 -69.9990 127° Southeast 506 582 37,000  Level FlightAware ADS-B
Tue 11:51:59 AM 20.5880 -69.9290 127° Southeast 504 580 37,000  Level FlightAware ADS-B
Tue 11:52:36 AM 20.5350 -69.8560 128° Southeast 503 579 37,000  Level FlightAware ADS-B
Tue 11:53:12 AM 20.4830 -69.7830 127° Southeast 503 579 37,000  Level FlightAware ADS-B
Tue 11:53:41 AM 20.4440 -69.7280 127° Southeast 500 575 37,000  Level FlightAware ADS-B
Tue 11:54:20 AM 20.3880 -69.6520 128° Southeast 497 572 37,000  Level FlightAware ADS-B
Tue 11:54:56 AM 20.3360 -69.5820 128° Southeast 497 572 37,000  Level FlightAware ADS-B
Tue 11:55:30 AM 20.2870 -69.5160 128° Southeast 498 573 37,000  Level FlightAware ADS-B
Tue 11:56:04 AM 20.2390 -69.4510 128° Southeast 498 573 37,000  Level FlightAware ADS-B
Tue 11:56:41 AM 20.1880 -69.3800 127° Southeast 499 574 37,000  Level FlightAware ADS-B
Tue 11:57:15 AM 20.1380 -69.3130 128° Southeast 500 575 37,000  Level FlightAware ADS-B
Tue 11:57:49 AM 20.0890 -69.2470 128° Southeast 500 575 37,000  Level FlightAware ADS-B
Tue 11:58:26 AM 20.0380 -69.1770 128° Southeast 500 575 37,000  Level FlightAware ADS-B
Tue 11:59:01 AM 19.9860 -69.1080 129° Southeast 499 574 37,000  Level FlightAware ADS-B
Tue 11:59:35 AM 19.9380 -69.0430 128° Southeast 499 574 37,000  Level FlightAware ADS-B
Tue 12:00:13 PM 19.8830 -68.9690 128° Southeast 499 574 37,000  Level FlightAware ADS-B
Tue 12:00:45 PM 19.8390 -68.9090 128° Southeast 498 573 37,000  Level FlightAware ADS-B
Tue 12:01:18 PM 19.7920 -68.8450 128° Southeast 495 570 37,000  Level FlightAware ADS-B
Tue 12:01:58 PM 19.7370 -68.7700 128° Southeast 493 567 37,000  Level FlightAware ADS-B
Tue 12:02:30 PM 19.6910 -68.7080 128° Southeast 491 565 37,000  Level FlightAware ADS-B
Tue 12:03:06 PM 19.6410 -68.6390 128° Southeast 491 565 37,000  Level FlightAware ADS-B
Tue 12:03:40 PM 19.5920 -68.5740 129° Southeast 493 567 37,000  Level FlightAware ADS-B
Tue 12:04:18 PM 19.5380 -68.5010 128° Southeast 494 568 37,000  Level FlightAware ADS-B
Tue 12:04:47 PM 19.4990 -68.4470 127° Southeast 493 567 37,000  Level FlightAware ADS-B
Tue 12:05:26 PM 19.4430 -68.3720 128° Southeast 493 567 37,000  Level FlightAware ADS-B
Tue 12:06:02 PM 19.3930 -68.3040 128° Southeast 492 566 37,000  Level FlightAware ADS-B
Tue 12:06:36 PM 19.3450 -68.2390 128° Southeast 491 565 37,000  Level FlightAware ADS-B
Tue 12:07:10 PM 19.2970 -68.1740 128° Southeast 492 566 37,000  Level FlightAware ADS-B
Tue 12:07:45 PM 19.2480 -68.1090 129° Southeast 492 566 37,000  Level FlightAware ADS-B
Tue 12:08:18 PM 19.2000 -68.0450 128° Southeast 492 566 37,000  Level FlightAware ADS-B
Tue 12:08:58 PM 19.1480 -67.9750 128° Southeast 490 564 37,000  Level FlightAware ADS-B
Tue 12:09:32 PM 19.0970 -67.9060 128° Southeast 490 564 37,000  Level FlightAware ADS-B
Tue 12:10:08 PM 19.0460 -67.8380 128° Southeast 490 564 37,000  Level FlightAware ADS-B
Tue 12:10:40 PM 19.0010 -67.7780 128° Southeast 492 566 37,000  Level FlightAware ADS-B
Tue 12:11:30 PM 18.9370 -67.6910 128° Southeast 492 566 37,000  Level FlightAware ADS-B
Tue 12:12:07 PM 18.8800 -67.6150 128° Southeast 491 565 37,000  Level FlightAware ADS-B
Tue 12:12:40 PM 18.8320 -67.5520 129° Southeast 491 565 37,000  Level FlightAware ADS-B
Tue 12:13:16 PM 18.7800 -67.4830 129° Southeast 491 565 37,000  Level FlightAware ADS-B
Tue 12:13:50 PM 18.7330 -67.4210 129° Southeast 492 566 37,000  Level FlightAware ADS-B
Tue 12:14:22 PM 18.6880 -67.3610 128° Southeast 491 565 37,000  Level FlightAware ADS-B
Tue 12:15:00 PM 18.6340 -67.2890 128° Southeast 490 564 37,000  Level FlightAware ADS-B
Tue 12:15:32 PM 18.5890 -67.2290 128° Southeast 489 563 37,000  Level FlightAware ADS-B
Tue 12:16:06 PM 18.5420 -67.1660 128° Southeast 488 562 37,000  Level FlightAware ADS-B
Tue 12:16:45 PM 18.5000 -67.1170 132° Southeast 490 564 37,000  Level FlightAware ADS-B
Tue 12:17:18 PM 18.4430 -67.0610 137° Southeast 492 566 37,000  Level FlightAware ADS-B
Tue 12:17:54 PM 18.3630 -66.9920 141° Southeast 491 565 37,000  Level FlightAware ADS-B
Tue 12:18:30 PM 18.2990 -66.9360 140° Southeast 492 566 37,000  Level FlightAware ADS-B
Tue 12:19:04 PM 18.2380 -66.8830 140° Southeast 492 566 37,000  Level FlightAware ADS-B
Tue 12:19:42 PM 18.1710 -66.8250 141° Southeast 492 566 37,000  Level FlightAware ADS-B
Tue 12:20:16 PM 18.1120 -66.7740 141° Southeast 492 566 37,000  Level FlightAware ADS-B
Tue 12:20:52 PM 18.0490 -66.7200 141° Southeast 492 566 37,000  Level FlightAware ADS-B
Tue 12:21:24 PM 17.9920 -66.6710 141° Southeast 492 566 37,000  Level FlightAware ADS-B
Tue 12:21:56 PM 17.9360 -66.6220 140° Southeast 492 566 37,000  Level FlightAware ADS-B
Tue 12:22:44 PM 17.8730 -66.5680 141° Southeast 493 567 37,000  Level FlightAware ADS-B
Tue 12:23:16 PM 17.8150 -66.5180 141° Southeast 493 567 37,000  Level FlightAware ADS-B
Tue 12:23:50 PM 17.7340 -66.4490 141° Southeast 494 568 37,000  Level FlightAware ADS-B
Tue 12:24:26 PM 17.6710 -66.3950 141° Southeast 495 570 37,000  Level FlightAware ADS-B
Tue 12:25:03 PM 17.6090 -66.3410 140° Southeast 495 570 37,000  Level FlightAware ADS-B
Tue 12:25:34 PM 17.5500 -66.2900 141° Southeast 493 567 37,000  Level FlightAware ADS-B
Tue 12:26:10 PM 17.4870 -66.2370 141° Southeast 491 565 37,000  Level FlightAware ADS-B
Tue 12:26:46 PM 17.4220 -66.1810 141° Southeast 489 563 37,000  Level FlightAware ADS-B
Tue 12:27:23 PM 17.3600 -66.1290 141° Southeast 488 562 37,000  Level FlightAware ADS-B
Tue 12:27:53 PM 17.3060 -66.0820 140° Southeast 486 559 37,000  Level FlightAware ADS-B
Tue 12:28:31 PM 17.2400 -66.0260 141° Southeast 487 560 37,000  Level FlightAware ADS-B
Tue 12:29:04 PM 17.1840 -65.9780 141° Southeast 487 560 37,000  Level FlightAware ADS-B
Tue 12:29:41 PM 17.1160 -65.9200 141° Southeast 487 560 37,000  Level FlightAware ADS-B
Tue 12:30:30 PM 17.0390 -65.8540 141° Southeast 487 560 37,000  Level FlightAware ADS-B
Tue 12:31:05 PM 16.9730 -65.7990 141° Southeast 486 559 37,000  Level FlightAware ADS-B
Tue 12:31:38 PM 16.9170 -65.7510 141° Southeast 486 559 37,000  Level FlightAware ADS-B
Tue 12:32:24 PM 16.8310 -65.6780 141° Southeast 485 558 37,000  Level FlightAware ADS-B
Tue 12:33:04 PM 16.7610 -65.6190 141° Southeast 484 557 37,000  Level FlightAware ADS-B
Tue 12:33:44 PM 16.7050 -65.5700 140° Southeast 484 557 37,000  Level FlightAware ADS-B
Tue 12:34:20 PM 16.6520 -65.5240 140° Southeast 484 557 37,000  Level FlightAware ADS-B
Tue 12:35:18 PM 16.5380 -65.4300 142° Southeast 487 560 37,000  Level FlightAware ADS-B
Tue 12:35:56 PM 16.4820 -65.3810 140° Southeast 487 560 37,000  Level FlightAware ADS-B
Tue 12:36:28 PM 16.4050 -65.3190 142° Southeast 489 563 37,000  Level FlightAware ADS-B
Tue 12:37:04 PM 16.3420 -65.2650 141° Southeast 491 565 37,000  Level FlightAware ADS-B
Tue 12:37:38 PM 16.2830 -65.2160 141° Southeast 490 564 37,000  Level FlightAware ADS-B
Tue 12:38:08 PM 16.2300 -65.1710 141° Southeast 491 565 37,000  Level FlightAware ADS-B
Tue 12:38:46 PM 16.1620 -65.1140 141° Southeast 491 565 37,000  Level FlightAware ADS-B
Tue 12:39:24 PM 16.0940 -65.0570 141° Southeast 491 565 37,000  Level FlightAware ADS-B
Tue 12:39:53 PM 16.0430 -65.0140 141° Southeast 492 566 37,000  Level FlightAware ADS-B
Tue 12:40:29 PM 15.9920 -64.9720 142° Southeast 492 566 37,000  Level FlightAware ADS-B
Tue 12:41:15 PM 15.9230 -64.9130 141° Southeast 492 566 37,000  Level FlightAware ADS-B
Tue 12:41:49 PM 15.8720 -64.8700 141° Southeast 492 566 37,000  Level FlightAware ADS-B
Tue 12:42:27 PM 15.8140 -64.8220 141° Southeast 492 566 37,000  Level FlightAware ADS-B
Tue 12:43:03 PM 15.7600 -64.7770 141° Southeast 492 566 37,000  Level FlightAware ADS-B
Tue 12:43:39 PM 15.7060 -64.7310 141° Southeast 492 566 37,000  Level FlightAware ADS-B
Tue 12:44:16 PM 15.6510 -64.6840 141° Southeast 492 566 37,000  Level FlightAware ADS-B
Tue 12:44:50 PM 15.5990 -64.6410 141° Southeast 492 566 37,000  Level FlightAware ADS-B
Tue 12:45:26 PM 15.5450 -64.5960 141° Southeast 492 566 37,000  Level FlightAware ADS-B
Tue 12:46:04 PM 15.4880 -64.5480 141° Southeast 492 566 37,000  Level FlightAware ADS-B
Tue 12:46:41 PM 15.4320 -64.5010 141° Southeast 492 566 37,000  Level FlightAware ADS-B
Tue 12:47:17 PM 15.3780 -64.4560 141° Southeast 492 566 37,000  Level FlightAware ADS-B
Tue 12:47:53 PM 15.3240 -64.4100 141° Southeast 492 566 37,000  Level FlightAware ADS-B
Tue 12:48:27 PM 15.2730 -64.3670 141° Southeast 492 566 37,000  Level FlightAware ADS-B
Tue 12:49:03 PM 15.2190 -64.3220 141° Southeast 492 566 37,000  Level FlightAware ADS-B
Tue 12:49:39 PM 15.1650 -64.2760 141° Southeast 492 566 37,000  Level FlightAware ADS-B
Tue 12:56:00 PM 14.4822 -63.8180 149° Southeast  Level FlightAware Approximate
Tue 12:57:00 PM 14.3713 -63.7507 150° Southeast  Level FlightAware Approximate
Tue 12:58:00 PM 14.2605 -63.6835 150° Southeast  Level FlightAware Approximate
Tue 12:59:00 PM 14.1496 -63.6164 149° Southeast  Level FlightAware Approximate
Tue 01:00:00 PM 14.0391 -63.5486 149° Southeast  Level FlightAware Approximate
Tue 01:01:00 PM 13.9286 -63.4809 149° Southeast  Level FlightAware Approximate
Tue 01:02:00 PM 13.8181 -63.4132 149° Southeast  Level FlightAware Approximate
Tue 01:03:00 PM 13.7075 -63.3456 149° Southeast  Level FlightAware Approximate
Tue 01:04:00 PM 13.5970 -63.2781 149° Southeast  Level FlightAware Approximate
Tue 01:05:00 PM 13.4864 -63.2106 149° Southeast  Level FlightAware Approximate
Tue 01:06:00 PM 13.3758 -63.1432 149° Southeast  Level FlightAware Approximate
Tue 01:07:00 PM 13.2652 -63.0759 149° Southeast  Level FlightAware Approximate
Tue 01:08:00 PM 13.1547 -63.0083 149° Southeast  Level FlightAware Approximate
Tue 01:08:39 PM 12.7620 -62.7720 149° Southeast 493 567 37,000  Level FlightAware ADS-B
Tue 01:09:14 PM 12.6890 -62.7280 150° Southeast 493 567 37,000  Level FlightAware ADS-B
Tue 01:09:52 PM 12.6150 -62.6830 149° Southeast 494 568 37,000  Level FlightAware ADS-B
Tue 01:10:22 PM 12.5570 -62.6480 150° Southeast 494 568 37,000  Level FlightAware ADS-B
Tue 01:10:58 PM 12.4890 -62.6070 150° Southeast 494 568 37,000  Level FlightAware ADS-B
Tue 01:11:33 PM 12.4200 -62.5650 149° Southeast 494 568 37,000  Level FlightAware ADS-B
Tue 01:12:05 PM 12.3560 -62.5260 149° Southeast 493 567 37,000  Level FlightAware ADS-B
Tue 01:12:44 PM 12.2760 -62.4780 150° Southeast 493 567 37,000  Level FlightAware ADS-B
Tue 01:13:17 PM 12.2150 -62.4410 149° Southeast 491 565 37,000  Level FlightAware ADS-B
Tue 01:13:56 PM 12.1330 -62.3910 149° Southeast 488 562 37,000  Level FlightAware ADS-B
Tue 01:14:31 PM 12.0670 -62.3520 150° Southeast 488 562 37,000  Level FlightAware ADS-B
Tue 01:15:03 PM 12.0070 -62.3150 149° Southeast 488 562 37,000  Level FlightAware ADS-B
Tue 01:15:40 PM 11.9320 -62.2700 150° Southeast 489 563 37,000  Level FlightAware ADS-B
Tue 01:16:16 PM 11.8610 -62.2270 149° Southeast 491 565 37,000  Level FlightAware ADS-B
Tue 01:16:48 PM 11.7990 -62.1900 150° Southeast 491 565 37,000  Level FlightAware ADS-B
Tue 01:17:24 PM 11.7270 -62.1470 150° Southeast 489 563 37,000  Level FlightAware ADS-B
Tue 01:18:00 PM 11.6580 -62.1050 149° Southeast 489 563 37,000  Level FlightAware ADS-B
Tue 01:18:34 PM 11.5910 -62.0650 150° Southeast 487 560 37,000  Level FlightAware ADS-B
Tue 01:19:10 PM 11.5200 -62.0230 150° Southeast 486 559 37,000  Level FlightAware ADS-B
Tue 01:19:46 PM 11.4520 -61.9820 149° Southeast 486 559 37,000  Level FlightAware ADS-B
Tue 01:20:22 PM 11.3820 -61.9400 150° Southeast 485 558 37,000  Level FlightAware ADS-B
Tue 01:20:56 PM 11.3150 -61.8990 149° Southeast 485 558 37,000  Level FlightAware ADS-B
Tue 01:21:32 PM 11.2460 -61.8580 150° Southeast 485 558 37,000  Level FlightAware ADS-B
Tue 01:22:04 PM 11.1830 -61.8200 149° Southeast 484 557 37,000  Level FlightAware ADS-B
Tue 01:22:42 PM 11.1140 -61.7790 150° Southeast 485 558 37,000  Level FlightAware ADS-B
Tue 01:23:18 PM 11.0400 -61.7350 150° Southeast 485 558 37,000  Level FlightAware ADS-B
Tue 01:23:50 PM 10.9770 -61.6970 149° Southeast 485 558 37,000  Level FlightAware ADS-B
Tue 01:24:28 PM 10.9060 -61.6540 149° Southeast 486 559 37,000  Level FlightAware ADS-B
Tue 01:25:00 PM 10.8420 -61.6160 150° Southeast 487 560 37,000  Level FlightAware ADS-B
Tue 01:25:36 PM 10.7720 -61.5750 150° Southeast 487 560 37,000  Level FlightAware ADS-B
Tue 01:26:06 PM 10.7140 -61.5400 149° Southeast 486 559 37,000  Level FlightAware ADS-B
Tue 01:26:46 PM 10.6380 -61.4940 149° Southeast 489 563 37,000  Level FlightAware ADS-B
Tue 01:27:20 PM 10.5690 -61.4520 149° Southeast 489 563 37,000  Level FlightAware ADS-B
Tue 01:27:58 PM 10.4980 -61.4070 148° Southeast 489 563 37,000  Level FlightAware ADS-B
Tue 01:28:30 PM 10.4370 -61.3650 146° Southeast 490 564 37,000  Level FlightAware ADS-B
Tue 01:29:04 PM 10.3710 -61.3200 146° Southeast 489 563 37,000  Level FlightAware ADS-B
Tue 01:29:48 PM 10.2900 -61.2620 145° Southeast 490 564 37,000  Level FlightAware ADS-B
Tue 01:30:22 PM 10.2290 -61.2160 143° Southeast 489 563 37,000  Level FlightAware ADS-B
Tue 01:31:00 PM 10.1600 -61.1640 143° Southeast 489 563 37,000  Level FlightAware ADS-B
Tue 01:31:33 PM 10.1030 -61.1180 142° Southeast 489 563 37,000  Level FlightAware ADS-B
Tue 01:32:06 PM 10.0420 -61.0700 142° Southeast 490 564 37,000  Level FlightAware ADS-B
Tue 01:32:43 PM 9.9770 -61.0170 141° Southeast 488 562 37,000  Level FlightAware ADS-B
Tue 01:33:16 PM 9.9230 -60.9630 135° Southeast 486 559 37,000  Level FlightAware ADS-B
Tue 01:33:54 PM 9.8650 -60.9010 134° Southeast 486 559 37,000  Level FlightAware ADS-B
Tue 01:34:30 PM 9.8100 -60.8390 132° Southeast 486 559 37,000  Level FlightAware ADS-B
Tue 01:35:02 PM 9.7610 -60.7850 133° Southeast 487 560 37,000  Level FlightAware ADS-B
Tue 01:35:38 PM 9.7070 -60.7250 132° Southeast 487 560 37,000  Level FlightAware ADS-B
Tue 01:36:14 PM 9.6510 -60.6640 133° Southeast 486 559 37,000  Level FlightAware ADS-B
Tue 01:36:48 PM 9.6000 -60.6070 132° Southeast 485 558 37,000  Level FlightAware ADS-B
Tue 01:37:14 PM 9.5630 -60.5620 130° Southeast 485 558 37,000  Level FlightAware ADS-B
Tue 01:37:49 PM 9.5170 -60.4980 126° Southeast 483 556 37,000  Level FlightAware ADS-B
Tue 01:38:26 PM 9.4690 -60.4300 126° Southeast 481 554 37,000  Level FlightAware ADS-B
Tue 01:39:00 PM 9.4260 -60.3680 125° Southeast 479 551 37,000  Level FlightAware ADS-B
Tue 01:39:36 PM 9.3820 -60.3000 123° Southeast 477 549 37,000  Level FlightAware ADS-B
Tue 01:40:12 PM 9.3440 -60.2280 118° Southeast 478 550 37,000  Level FlightAware ADS-B
Tue 01:40:48 PM 9.3050 -60.1570 119° Southeast 478 550 37,000  Level FlightAware ADS-B
Tue 01:41:20 PM 9.2720 -60.0960 119° Southeast 479 551 37,000  Level FlightAware ADS-B
Tue 01:41:58 PM 9.2280 -60.0220 121° Southeast 481 554 37,000  Level FlightAware ADS-B
Tue 01:42:30 PM 9.1900 -59.9590 121° Southeast 482 555 37,000  Level FlightAware ADS-B
Tue 01:43:04 PM 9.1520 -59.8950 121° Southeast 482 555 37,000  Level FlightAware ADS-B
Tue 01:43:40 PM 9.1080 -59.8250 122° Southeast 484 557 37,000  Level FlightAware ADS-B
Tue 01:44:16 PM 9.0660 -59.7550 121° Southeast 489 563 37,000  Level FlightAware ADS-B
Tue 01:44:50 PM 9.0260 -59.6880 121° Southeast 492 566 37,000  Level FlightAware ADS-B
Tue 01:45:24 PM 8.9930 -59.6180 116° Southeast 487 560 37,000  Level FlightAware ADS-B
Tue 01:46:03 PM 8.9590 -59.5380 113° Southeast 477 549 37,000  Level FlightAware ADS-B
Tue 01:46:34 PM 8.9300 -59.4750 115° Southeast 479 551 37,000  Level FlightAware ADS-B
Tue 01:47:11 PM 8.8960 -59.4010 115° Southeast 479 551 37,000  Level FlightAware ADS-B
Tue 01:47:44 PM 8.8660 -59.3310 113° Southeast 480 552 37,000  Level FlightAware ADS-B
Tue 01:48:22 PM 8.8320 -59.2540 114° Southeast 479 551 37,000  Level FlightAware ADS-B
Tue 01:49:11 PM 8.7900 -59.1650 116° Southeast 481 554 37,000  Level FlightAware ADS-B
Tue 01:49:22 PM 8.7630 -59.1380 135° Southeast 478 550 37,000  Level FlightAware ADS-B
Tue 01:49:59 PM 8.7040 -59.0850 138° Southeast 476 548 37,000  Level FlightAware ADS-B
Tue 01:50:26 PM 8.6510 -59.0560 152° Southeast 474 545 37,000  Level FlightAware ADS-B
Tue 01:51:04 PM 8.5720 -59.0270 160° South 475 547 37,000  Level FlightAware ADS-B
Tue 01:51:53 PM 8.4810 -58.9920 159° South 480 552 37,000  Level FlightAware ADS-B
Tue 01:52:22 PM 8.4070 -58.9650 160° South 491 565 37,000  Level FlightAware ADS-B
Tue 01:53:09 PM 8.3230 -58.9330 159° South 491 565 37,000  Level FlightAware ADS-B
Tue 01:53:45 PM 8.2580 -58.9080 159° South 491 565 37,000  Level FlightAware ADS-B
Tue 01:54:19 PM 8.1970 -58.8840 159° South 491 565 37,000  Level FlightAware ADS-B
Tue 01:54:55 PM 8.1320 -58.8590 159° South 491 565 37,000  Level FlightAware ADS-B
Tue 01:55:32 PM 8.0650 -58.8330 159° South 491 565 37,000  Level FlightAware ADS-B
Tue 01:56:10 PM 7.9970 -58.8070 159° South 491 565 37,000  Level FlightAware ADS-B
Tue 01:56:47 PM 7.9300 -58.7810 159° South 491 565 37,000  Level FlightAware ADS-B
Tue 01:57:24 PM 7.8630 -58.7550 159° South 491 565 37,000  Level FlightAware ADS-B
Tue 01:58:10 PM 7.7810 -58.7230 159° South 491 565 37,000  Level FlightAware ADS-B
Tue 01:58:46 PM 7.7160 -58.6980 159° South 491 565 37,000  Level FlightAware ADS-B
Tue 01:59:22 PM 7.6510 -58.6720 158° South 491 565 37,000  Level FlightAware ADS-B
Tue 01:59:58 PM 7.5860 -58.6470 159° South 491 565 37,000  Level FlightAware ADS-B
Tue 02:00:44 PM 7.5030 -58.6150 159° South 491 565 37,000  Level FlightAware ADS-B
Tue 02:01:21 PM 7.4360 -58.5890 159° South 491 565 37,000  Level FlightAware ADS-B
Tue 02:01:57 PM 7.3710 -58.5640 159° South 491 565 37,000 13 Level FlightAware ADS-B
Tue 02:04:00 PM 7.1378 -58.4401 152° Southeast  Level Estimated
Tue 02:05:00 PM 7.0241 -58.3797 152° Southeast  Level Estimated
Tue 02:06:00 PM 6.9103 -58.3194 152° Southeast  Level Estimated
Tue 02:07:00 PM 6.7966 -58.2591 152° Southeast  Level Estimated
Tue 02:08:00 PM 6.6828 -58.1988 152° Southeast  Level Estimated
Tue 02:09:00 PM 6.5690 -58.1385 152° Southeast  Level Estimated
Tue 02:10:00 PM 6.4552 -58.0783 152° Southeast  Level Estimated
Tue 02:11:00 PM 6.3414 -58.0181 152° Southeast  Level Estimated
Tue 02:12:00 PM 6.2276 -57.9579 152° Southeast  Level Estimated
Tue 02:13:00 PM 6.1138 -57.8977 152° Southeast  Level Estimated
Tue 02:14:00 PM 6.0000 -57.8376 152° Southeast  Level Estimated
Tue 02:15:00 PM 5.8862 -57.7775 152° Southeast  Level Estimated
Tue 02:16:00 PM 5.7723 -57.7174 152° Southeast  Level Estimated
Tue 02:17:00 PM 5.6585 -57.6573 152° Southeast  Level Estimated
Tue 02:18:00 PM 5.5447 -57.5973 152° Southeast  Level Estimated
Tue 02:19:00 PM 5.4308 -57.5373 152° Southeast  Level Estimated
Tue 02:20:00 PM 5.3170 -57.4773 152° Southeast  Level Estimated
Tue 02:21:00 PM 5.2031 -57.4173 152° Southeast  Level Estimated
Tue 02:22:00 PM 5.0893 -57.3573 152° Southeast  Level Estimated
Tue 02:23:00 PM 4.9754 -57.2974 152° Southeast  Level Estimated
Tue 02:24:00 PM 4.8615 -57.2375 152° Southeast  Level Estimated
Tue 02:25:00 PM 4.7476 -57.1776 152° Southeast  Level Estimated
Tue 02:26:00 PM 4.6337 -57.1177 152° Southeast  Level Estimated
Tue 02:27:00 PM 4.5198 -57.0579 152° Southeast  Level Estimated
Tue 02:28:00 PM 4.4060 -56.9981 152° Southeast  Level Estimated
Tue 02:29:00 PM 4.2920 -56.9383 152° Southeast  Level Estimated
Tue 02:30:00 PM 4.1781 -56.8785 152° Southeast  Level Estimated
Tue 02:31:00 PM 4.0642 -56.8187 152° Southeast  Level Estimated
Tue 02:32:00 PM 3.9503 -56.7589 152° Southeast  Level Estimated
Tue 02:33:00 PM 3.8364 -56.6992 152° Southeast  Level Estimated
Tue 02:34:00 PM 3.7225 -56.6395 152° Southeast  Level Estimated
Tue 02:35:00 PM 3.6086 -56.5798 152° Southeast  Level Estimated
Tue 02:36:00 PM 3.4946 -56.5201 152° Southeast  Level Estimated
Tue 02:37:00 PM 3.3807 -56.4604 152° Southeast  Level Estimated
Tue 02:38:00 PM 3.2668 -56.4007 152° Southeast  Level Estimated
Tue 02:39:00 PM 3.1528 -56.3411 152° Southeast  Level Estimated
Tue 02:40:00 PM 3.0389 -56.2814 152° Southeast  Level Estimated
Tue 02:41:00 PM 2.9249 -56.2218 152° Southeast  Level Estimated
Tue 02:42:00 PM 2.8110 -56.1622 152° Southeast  Level Estimated
Tue 02:43:00 PM 2.6970 -56.1026 152° Southeast  Level Estimated
Tue 02:44:00 PM 2.5831 -56.0430 152° Southeast  Level Estimated
Tue 02:45:00 PM 2.4691 -55.9834 152° Southeast  Level Estimated
Tue 02:46:00 PM 2.3551 -55.9238 152° Southeast  Level Estimated
Tue 02:47:00 PM 2.2412 -55.8643 152° Southeast  Level Estimated
Tue 02:48:00 PM 2.1272 -55.8047 152° Southeast  Level Estimated
Tue 02:49:00 PM 2.0132 -55.7452 152° Southeast  Level Estimated
Tue 02:50:00 PM 1.8993 -55.6857 152° Southeast  Level Estimated
Tue 02:51:00 PM 1.7853 -55.6261 152° Southeast  Level Estimated
Tue 02:52:00 PM 1.6713 -55.5666 152° Southeast  Level Estimated
Tue 02:53:00 PM 1.5573 -55.5071 152° Southeast  Level Estimated
Tue 02:54:00 PM 1.4433 -55.4476 152° Southeast  Level Estimated
Tue 02:55:00 PM 1.3294 -55.3881 152° Southeast  Level Estimated
Tue 02:56:00 PM 1.2154 -55.3286 152° Southeast  Level Estimated
Tue 02:57:00 PM 1.1014 -55.2691 152° Southeast  Level Estimated
Tue 02:58:00 PM 0.9874 -55.2096 152° Southeast  Level Estimated
Tue 02:59:00 PM 0.8734 -55.1501 152° Southeast  Level Estimated
Tue 03:00:00 PM 0.7595 -55.0907 152° Southeast  Level Estimated
Tue 03:01:00 PM 0.6455 -55.0312 152° Southeast  Level Estimated
Tue 03:02:00 PM 0.5315 -54.9717 152° Southeast  Level Estimated
Tue 03:03:00 PM 0.4175 -54.9123 152° Southeast  Level Estimated
Tue 03:04:00 PM 0.3035 -54.8528 152° Southeast  Level Estimated
Tue 03:05:00 PM 0.1895 -54.7933 152° Southeast  Level Estimated
Tue 03:06:00 PM 0.0755 -54.7338 152° Southeast  Level Estimated
Tue 03:07:00 PM -0.0385 -54.6744 152° Southeast  Level Estimated
Tue 03:08:00 PM -0.1525 -54.6149 152° Southeast  Level Estimated
Tue 03:09:00 PM -0.2665 -54.5554 152° Southeast  Level Estimated
Tue 03:10:00 PM -0.3805 -54.4960 152° Southeast  Level Estimated
Tue 03:11:00 PM -0.4944 -54.4365 152° Southeast  Level Estimated
Tue 03:12:00 PM -0.6084 -54.3770 152° Southeast  Level Estimated
Tue 03:13:00 PM -0.7224 -54.3176 152° Southeast  Level Estimated
Tue 03:14:00 PM -0.8364 -54.2581 152° Southeast  Level Estimated
Tue 03:15:00 PM -0.9504 -54.1986 152° Southeast  Level Estimated
Tue 03:16:00 PM -1.0644 -54.1391 152° Southeast  Level Estimated
Tue 03:17:00 PM -1.1784 -54.0796 152° Southeast  Level Estimated
Tue 03:18:00 PM -1.2924 -54.0201 152° Southeast  Level Estimated
Tue 03:19:00 PM -1.4063 -53.9606 152° Southeast  Level Estimated
Tue 03:20:00 PM -1.5203 -53.9011 152° Southeast  Level Estimated
Tue 03:21:00 PM -1.6343 -53.8416 152° Southeast  Level Estimated
Tue 03:22:00 PM -1.7483 -53.7821 152° Southeast  Level Estimated
Tue 03:23:00 PM -1.8622 -53.7226 152° Southeast  Level Estimated
Tue 03:24:00 PM -1.9762 -53.6631 152° Southeast  Level Estimated
Tue 03:25:00 PM -2.0902 -53.6035 152° Southeast  Level Estimated
Tue 03:26:00 PM -2.2041 -53.5440 152° Southeast  Level Estimated
Tue 03:27:00 PM -2.3181 -53.4844 152° Southeast  Level Estimated
Tue 03:28:00 PM -2.4321 -53.4248 152° Southeast  Level Estimated
Tue 03:29:00 PM -2.5460 -53.3652 152° Southeast  Level Estimated
Tue 03:30:00 PM -2.6600 -53.3057 152° Southeast  Level Estimated
Tue 03:31:00 PM -2.7740 -53.2461 152° Southeast  Level Estimated
Tue 03:32:00 PM -2.8879 -53.1865 152° Southeast  Level Estimated
Tue 03:33:00 PM -3.0019 -53.1268 152° Southeast  Level Estimated
Tue 03:34:00 PM -3.1158 -53.0672 152° Southeast  Level Estimated
Tue 03:35:00 PM -3.2297 -53.0075 152° Southeast  Level Estimated
Tue 03:36:00 PM -3.3437 -52.9479 152° Southeast  Level Estimated
Tue 03:37:00 PM -3.4576 -52.8882 152° Southeast  Level Estimated
Tue 03:38:00 PM -3.5716 -52.8285 152° Southeast  Level Estimated
Tue 03:39:00 PM -3.6855 -52.7688 152° Southeast  Level Estimated
Tue 03:40:00 PM -3.7994 -52.7091 152° Southeast  Level Estimated
Tue 03:41:00 PM -3.9133 -52.6493 152° Southeast  Level Estimated
Tue 03:42:00 PM -4.0272 -52.5896 152° Southeast  Level Estimated
Tue 03:43:00 PM -4.1412 -52.5298 152° Southeast  Level Estimated
Tue 03:44:00 PM -4.2551 -52.4700 152° Southeast  Level Estimated
Tue 03:45:00 PM -4.3690 -52.4102 152° Southeast  Level Estimated
Tue 03:46:00 PM -4.4829 -52.3504 152° Southeast  Level Estimated
Tue 03:47:00 PM -4.5968 -52.2906 152° Southeast  Level Estimated
Tue 03:48:00 PM -4.7106 -52.2307 152° Southeast  Level Estimated
Tue 03:49:00 PM -4.8245 -52.1708 152° Southeast  Level Estimated
Tue 03:50:00 PM -4.9384 -52.1109 152° Southeast  Level Estimated
Tue 03:51:00 PM -5.0523 -52.0510 152° Southeast  Level Estimated
Tue 03:52:00 PM -5.1662 -51.9911 152° Southeast  Level Estimated
Tue 03:53:00 PM -5.2800 -51.9311 152° Southeast  Level Estimated
Tue 03:54:00 PM -5.3939 -51.8711 152° Southeast  Level Estimated
Tue 03:55:00 PM -5.5077 -51.8111 152° Southeast  Level Estimated
Tue 03:56:00 PM -5.6216 -51.7511 152° Southeast  Level Estimated
Tue 03:57:00 PM -5.7354 -51.6911 152° Southeast  Level Estimated
Tue 03:58:00 PM -5.8492 -51.6310 152° Southeast  Level Estimated
Tue 03:59:00 PM -5.9630 -51.5709 152° Southeast  Level Estimated
Tue 04:00:00 PM -6.0769 -51.5107 152° Southeast  Level Estimated
Tue 04:01:00 PM -6.1907 -51.4506 152° Southeast  Level Estimated
Tue 04:02:00 PM -6.3045 -51.3904 152° Southeast  Level Estimated
Tue 04:03:00 PM -6.4183 -51.3302 152° Southeast  Level Estimated
Tue 04:04:00 PM -6.5321 -51.2700 152° Southeast  Level Estimated
Tue 04:05:00 PM -6.6458 -51.2097 152° Southeast  Level Estimated
Tue 04:06:00 PM -6.7596 -51.1494 152° Southeast  Level Estimated
Tue 04:07:00 PM -6.8734 -51.0891 152° Southeast  Level Estimated
Tue 04:08:00 PM -6.9872 -51.0288 152° Southeast  Level Estimated
Tue 04:09:00 PM -7.1009 -50.9684 152° Southeast  Level Estimated
Tue 04:10:00 PM -7.2147 -50.9080 152° Southeast  Level Estimated
Tue 04:11:00 PM -7.3284 -50.8476 152° Southeast  Level Estimated
Tue 04:12:00 PM -7.4421 -50.7871 152° Southeast  Level Estimated
Tue 04:13:00 PM -7.5558 -50.7266 152° Southeast  Level Estimated
Tue 04:14:00 PM -7.6695 -50.6661 152° Southeast  Level Estimated
Tue 04:15:00 PM -7.7832 -50.6055 152° Southeast  Level Estimated
Tue 04:16:00 PM -7.8969 -50.5449 152° Southeast  Level Estimated
Tue 04:17:00 PM -8.0106 -50.4843 152° Southeast  Level Estimated
Tue 04:18:00 PM -8.1243 -50.4236 152° Southeast  Level Estimated
Tue 04:19:00 PM -8.2380 -50.3629 152° Southeast  Level Estimated
Tue 04:20:00 PM -8.3517 -50.3022 152° Southeast  Level Estimated
Tue 04:21:00 PM -8.4653 -50.2415 152° Southeast  Level Estimated
Tue 04:22:00 PM -8.5789 -50.1806 152° Southeast  Level Estimated
Tue 04:23:00 PM -8.6926 -50.1198 152° Southeast  Level Estimated
Tue 04:24:00 PM -8.8062 -50.0589 152° Southeast  Level Estimated
Tue 04:25:00 PM -8.9198 -49.9980 152° Southeast  Level Estimated
Tue 04:26:00 PM -9.0334 -49.9371 152° Southeast  Level Estimated
Tue 04:27:00 PM -9.1470 -49.8761 152° Southeast  Level Estimated
Tue 04:28:00 PM -9.2606 -49.8151 152° Southeast  Level Estimated
Tue 04:29:00 PM -9.3741 -49.7540 152° Southeast  Level Estimated
Tue 04:30:00 PM -9.4877 -49.6929 152° Southeast  Level Estimated
Tue 04:31:00 PM -9.6012 -49.6317 152° Southeast  Level Estimated
Tue 04:32:00 PM -9.7148 -49.5705 152° Southeast  Level Estimated
Tue 04:33:00 PM -9.8283 -49.5093 152° Southeast  Level Estimated
Tue 04:34:00 PM -9.9418 -49.4480 152° Southeast  Level Estimated
Tue 04:34:09 PM -10.6690 -50.3530 152° Southeast 471 542 39,000  Level FlightAware ADS-B
Tue 04:34:51 PM -10.7270 -50.3010 139° Southeast 471 542 39,000  Level FlightAware ADS-B
Tue 04:35:39 PM -10.7040 -50.3220 318° Northwest 473 544 39,000  Level FlightAware ADS-B
Tue 04:36:06 PM -10.6690 -50.3530 319° Northwest 474 545 39,000  Level FlightAware ADS-B
Tue 04:36:45 PM -10.9420 -50.1300 141° Southeast 474 545 39,000  Level FlightAware ADS-B
Tue 04:37:16 PM -10.9940 -50.0980 149° Southeast 476 548 39,000  Level FlightAware ADS-B
Tue 04:37:55 PM -11.0560 -50.0590 148° Southeast 476 548 39,000  Level FlightAware ADS-B
Tue 04:38:21 PM -10.9940 -50.0980 328° Northwest 982 1130 39,000  Level FlightAware ADS-B
Tue 04:39:14 PM -11.2300 -49.9590 150° Southeast 476 548 39,000  Level FlightAware ADS-B
Tue 04:39:47 PM -11.2300 -49.9590 150° Southeast 474 545 39,000  Level FlightAware ADS-B
Tue 04:40:26 PM -11.3580 -49.8830 150° Southeast 473 544 39,000  Level FlightAware ADS-B
Tue 04:41:09 PM -11.4390 -49.8340 149° Southeast 473 544 39,000  Level FlightAware ADS-B
Tue 04:41:38 PM -11.4420 -49.8330 162° South 473 544 39,000  Level FlightAware ADS-B
Tue 04:42:49 PM -11.6330 -49.7180 149° Southeast 472 543 39,000  Level FlightAware ADS-B
Tue 04:43:22 PM -11.6880 -49.6840 149° Southeast 472 543 39,000  Level FlightAware ADS-B
Tue 04:43:58 PM -11.7450 -49.6490 149° Southeast 472 543 39,000  Level FlightAware ADS-B
Tue 04:44:34 PM -11.8030 -49.6140 149° Southeast 472 543 39,000  Level FlightAware ADS-B
Tue 04:45:12 PM -11.9010 -49.5580 151° Southeast 473 544 39,000  Level FlightAware ADS-B
Tue 04:45:58 PM -11.9790 -49.5140 151° Southeast 474 545 39,000  Level FlightAware ADS-B
Tue 04:46:34 PM -12.0380 -49.4810 151° Southeast 474 545 39,000  Level FlightAware ADS-B
Tue 04:47:10 PM -12.0960 -49.4480 151° Southeast 474 545 39,000  Level FlightAware ADS-B
Tue 04:47:45 PM -12.1530 -49.4160 151° Southeast 474 545 39,000  Level FlightAware ADS-B
Tue 04:48:21 PM -12.2120 -49.3820 151° Southeast 474 545 39,000  Level FlightAware ADS-B
Tue 04:48:57 PM -12.2710 -49.3490 151° Southeast 474 545 39,000  Level FlightAware ADS-B
Tue 04:49:11 PM -11.9330 -49.5400 331° Northwest 39,000  Level FlightAware ADS-B
Tue 04:51:00 PM -12.1263 -49.4060 146° Southeast  Level Estimated
Tue 04:52:00 PM -12.2327 -49.3321 146° Southeast  Level Estimated
Tue 04:53:00 PM -12.3391 -49.2582 146° Southeast  Level Estimated
Tue 04:54:00 PM -12.4454 -49.1842 146° Southeast  Level Estimated
Tue 04:55:00 PM -12.5517 -49.1102 146° Southeast  Level Estimated
Tue 04:56:00 PM -12.6580 -49.0361 146° Southeast  Level Estimated
Tue 04:57:00 PM -12.7643 -48.9619 146° Southeast  Level Estimated
Tue 04:58:00 PM -12.8706 -48.8877 146° Southeast  Level Estimated
Tue 04:59:00 PM -12.9768 -48.8134 146° Southeast  Level Estimated
Tue 05:00:00 PM -13.0830 -48.7391 146° Southeast  Level Estimated
Tue 05:01:00 PM -13.1892 -48.6646 146° Southeast  Level Estimated
Tue 05:02:00 PM -13.2954 -48.5902 146° Southeast  Level Estimated
Tue 05:02:27 PM -13.7480 -48.1470 146° Southeast 486 559 39,000  Level FlightAware ADS-B
Tue 05:03:02 PM -13.8090 -48.0950 140° Southeast 486 559 39,000  Level FlightAware ADS-B
Tue 05:03:37 PM -13.8630 -48.0500 141° Southeast 486 559 39,000  Level FlightAware ADS-B
Tue 05:04:12 PM -13.9280 -47.9950 141° Southeast 485 558 39,000  Level FlightAware ADS-B
Tue 05:04:52 PM -13.9990 -47.9360 141° Southeast 485 558 39,000  Level FlightAware ADS-B
Tue 05:05:27 PM -14.0620 -47.8830 141° Southeast 487 560 39,000  Level FlightAware ADS-B
Tue 05:06:07 PM -14.1320 -47.8240 141° Southeast 488 562 39,000  Level FlightAware ADS-B
Tue 05:06:37 PM -14.1780 -47.7860 141° Southeast 488 562 39,000  Level FlightAware ADS-B
Tue 05:07:12 PM -14.2450 -47.7290 140° Southeast 489 563 39,000  Level FlightAware ADS-B
Tue 05:07:57 PM -14.3230 -47.6630 141° Southeast 487 560 39,000  Level FlightAware ADS-B
Tue 05:08:32 PM -14.3850 -47.6110 141° Southeast 487 560 39,000  Level FlightAware ADS-B
Tue 05:09:02 PM -14.4340 -47.5690 140° Southeast 488 562 39,000  Level FlightAware ADS-B
Tue 05:09:42 PM -14.5080 -47.5060 141° Southeast 490 564 39,000  Level FlightAware ADS-B
Tue 05:10:17 PM -14.5690 -47.4550 141° Southeast 491 565 39,000  Level FlightAware ADS-B
Tue 05:10:52 PM -14.6300 -47.4030 140° Southeast 491 565 39,000  Level FlightAware ADS-B
Tue 05:11:27 PM -14.6740 -47.3660 141° Southeast 491 565 39,000  Level FlightAware ADS-B
Tue 05:12:02 PM -14.7540 -47.2980 141° Southeast 491 565 39,000  Level FlightAware ADS-B
Tue 05:12:42 PM -14.8200 -47.2420 141° Southeast 491 565 39,000  Level FlightAware ADS-B
Tue 05:13:17 PM -14.8860 -47.1860 141° Southeast 491 565 39,000 -600 Level FlightAware ADS-B
Tue 05:13:52 PM -14.9450 -47.1350 140° Southeast 491 565 38,300 -1,629 Descending FlightAware ADS-B
Tue 05:14:27 PM -15.0090 -47.0810 141° Southeast 492 566 37,100 -918 Descending FlightAware ADS-B
Tue 05:15:17 PM -15.0940 -47.0090 141° Southeast 484 557 37,000 -71 Descending FlightAware ADS-B
Tue 05:15:52 PM -15.1570 -46.9550 140° Southeast 486 559 37,000  Level FlightAware ADS-B
Tue 05:16:27 PM -15.2180 -46.9030 141° Southeast 487 560 37,000  Level FlightAware ADS-B
Tue 05:17:02 PM -15.2780 -46.8520 141° Southeast 485 558 37,000  Level FlightAware ADS-B
Tue 05:17:37 PM -15.3390 -46.7990 140° Southeast 484 557 37,000  Level FlightAware ADS-B
Tue 05:18:12 PM -15.3990 -46.7480 141° Southeast 485 558 37,000  Level FlightAware ADS-B
Tue 05:18:47 PM -15.4600 -46.6960 141° Southeast 485 558 37,000  Level FlightAware ADS-B
Tue 05:19:22 PM -15.5200 -46.6440 140° Southeast 486 559 37,000  Level FlightAware ADS-B
Tue 05:19:57 PM -15.5810 -46.5920 141° Southeast 486 559 37,000  Level FlightAware ADS-B
Tue 05:20:32 PM -15.6420 -46.5400 141° Southeast 487 560 37,000  Level FlightAware ADS-B
Tue 05:21:07 PM -15.7030 -46.4880 141° Southeast 487 560 37,000  Level FlightAware ADS-B
Tue 05:21:42 PM -15.7620 -46.4370 140° Southeast 489 563 37,000  Level FlightAware ADS-B
Tue 05:22:12 PM -15.8120 -46.3940 140° Southeast 487 560 37,000  Level FlightAware ADS-B
Tue 05:22:53 PM -15.8850 -46.3310 140° Southeast 487 560 37,000  Level FlightAware ADS-B
Tue 05:23:27 PM -15.9460 -46.2790 141° Southeast 487 560 37,000  Level FlightAware ADS-B
Tue 05:24:12 PM -16.0170 -46.2170 140° Southeast 486 559 37,000  Level FlightAware ADS-B
Tue 05:24:49 PM -16.0710 -46.1700 140° Southeast 486 559 37,000  Level FlightAware ADS-B
Tue 05:25:26 PM -16.1260 -46.1230 141° Southeast 486 559 37,000  Level FlightAware ADS-B
Tue 05:26:02 PM -16.1780 -46.0760 139° Southeast 486 559 37,000  Level FlightAware ADS-B
Tue 05:26:38 PM -16.2310 -46.0300 140° Southeast 486 559 37,000  Level FlightAware ADS-B
Tue 05:27:14 PM -16.2840 -45.9840 140° Southeast 486 559 37,000  Level FlightAware ADS-B
Tue 05:27:51 PM -16.3380 -45.9370 140° Southeast 486 559 37,000  Level FlightAware ADS-B
Tue 05:28:27 PM -16.3910 -45.8910 140° Southeast 486 559 37,000  Level FlightAware ADS-B
Tue 05:29:05 PM -16.5330 -45.7700 141° Southeast 487 560 37,000  Level FlightAware ADS-B
Tue 05:29:40 PM -16.5950 -45.7160 140° Southeast 486 559 37,000  Level FlightAware ADS-B
Tue 05:30:20 PM -16.6640 -45.6560 140° Southeast 486 559 37,000  Level FlightAware ADS-B
Tue 05:30:55 PM -16.7260 -45.6030 141° Southeast 488 562 37,000  Level FlightAware ADS-B
Tue 05:31:30 PM -16.7870 -45.5500 140° Southeast 488 562 37,000  Level FlightAware ADS-B
Tue 05:32:05 PM -16.8450 -45.4990 140° Southeast 488 562 37,000  Level FlightAware ADS-B
Tue 05:32:50 PM -16.9260 -45.4280 140° Southeast 490 564 37,000  Level FlightAware ADS-B
Tue 05:33:20 PM -16.9760 -45.3840 140° Southeast 490 564 37,000  Level FlightAware ADS-B
Tue 05:33:55 PM -17.0390 -45.3290 140° Southeast 489 563 37,000  Level FlightAware ADS-B
Tue 05:34:35 PM -17.1080 -45.2690 140° Southeast 489 563 37,000  Level FlightAware ADS-B
Tue 05:35:05 PM -17.1530 -45.2290 140° Southeast 489 563 37,000  Level FlightAware ADS-B
Tue 05:35:40 PM -17.2210 -45.1700 140° Southeast 490 564 37,000  Level FlightAware ADS-B
Tue 05:36:15 PM -17.2780 -45.1200 140° Southeast 491 565 37,000  Level FlightAware ADS-B
Tue 05:36:55 PM -17.3490 -45.0570 140° Southeast 491 565 37,000  Level FlightAware ADS-B
Tue 05:37:31 PM -17.4090 -45.0050 140° Southeast 489 563 37,000  Level FlightAware ADS-B
Tue 05:38:00 PM -17.4630 -44.9570 140° Southeast 488 562 37,000  Level FlightAware ADS-B
Tue 05:38:35 PM -17.5230 -44.9040 140° Southeast 486 559 37,000  Level FlightAware ADS-B
Tue 05:39:15 PM -17.5940 -44.8420 140° Southeast 486 559 37,000  Level FlightAware ADS-B
Tue 05:39:50 PM -17.6520 -44.7900 139° Southeast 487 560 37,000  Level FlightAware ADS-B
Tue 05:40:20 PM -17.7040 -44.7440 140° Southeast 486 559 37,000  Level FlightAware ADS-B
Tue 05:40:45 PM -17.7480 -44.7100 144° Southeast 479 551 37,000  Level FlightAware ADS-B
Tue 05:41:05 PM -17.7920 -44.6920 159° South 470 541 37,000  Level FlightAware ADS-B
Tue 05:41:40 PM -17.8650 -44.6730 166° South 470 541 37,000  Level FlightAware ADS-B
Tue 05:42:15 PM -17.9400 -44.6520 165° South 471 542 37,000  Level FlightAware ADS-B
Tue 05:42:50 PM -18.0140 -44.6320 166° South 472 543 37,000  Level FlightAware ADS-B
Tue 05:43:30 PM -18.0940 -44.6110 166° South 473 544 37,000 -640 Level FlightAware ADS-B
Tue 05:44:05 PM -18.1700 -44.5900 165° South 482 555 36,200 -1,800 Descending FlightAware ADS-B
Tue 05:44:40 PM -18.2390 -44.5710 165° South 478 550 34,900 -1,971 Descending FlightAware ADS-B
Tue 05:45:15 PM -18.3230 -44.5480 165° South 468 539 33,900 -1,714 Descending FlightAware ADS-B
Tue 05:45:50 PM -18.3930 -44.5290 166° South 457 526 32,900 -1,629 Descending FlightAware ADS-B
Tue 05:46:25 PM -18.4670 -44.5090 166° South 446 513 32,000 -1,629 Descending FlightAware ADS-B
Tue 05:47:00 PM -18.5360 -44.4890 165° South 441 507 31,000 -1,600 Descending FlightAware ADS-B
Tue 05:47:40 PM -18.6140 -44.4680 166° South 435 501 30,000 -1,543 Descending FlightAware ADS-B
Tue 05:48:10 PM -18.6710 -44.4520 165° South 430 495 29,200 -1,569 Descending FlightAware ADS-B
Tue 05:48:45 PM -18.7410 -44.4330 166° South 426 490 28,300 -1,543 Descending FlightAware ADS-B
Tue 05:49:20 PM -18.8050 -44.4160 166° South 425 489 27,400 -2,300 Descending FlightAware ADS-B
Tue 05:49:45 PM -18.8520 -44.3950 157° South 441 507 26,000 -3,273 Descending FlightAware ADS-B
Tue 05:50:15 PM -18.9000 -44.3510 139° Southeast 458 527 24,400 -2,123 Descending FlightAware ADS-B
Tue 05:50:50 PM -18.9560 -44.3000 139° Southeast 438 504 23,700 -1,457 Descending FlightAware ADS-B
Tue 05:51:25 PM -19.0080 -44.2520 139° Southeast 429 494 22,700 -1,920 Descending FlightAware ADS-B
Tue 05:52:05 PM -19.0660 -44.2000 140° Southeast 425 489 21,300 -2,000 Descending FlightAware ADS-B
Tue 05:52:40 PM -19.1210 -44.1500 139° Southeast 419 482 20,200 -1,754 Descending FlightAware ADS-B
Tue 05:53:10 PM -19.1640 -44.1110 139° Southeast 409 471 19,400 -1,800 Descending FlightAware ADS-B
Tue 05:53:50 PM -19.2220 -44.0590 140° Southeast 402 463 18,100 -1,944 Descending FlightAware ADS-B
Tue 05:54:21 PM -19.2630 -44.0210 139° Southeast 390 449 17,100 -2,769 Descending FlightAware ADS-B
Tue 05:54:55 PM -19.3100 -43.9790 140° Southeast 388 447 15,100 -2,783 Descending FlightAware ADS-B
Tue 05:55:30 PM -19.3580 -43.9360 140° Southeast 378 435 13,900 -1,714 Descending FlightAware ADS-B
Tue 05:56:05 PM -19.4020 -43.8950 139° Southeast 367 422 13,100 -1,477 Descending FlightAware ADS-B
Tue 05:56:35 PM -19.4430 -43.8620 143° Southeast 352 405 12,300 -2,000 Descending FlightAware ADS-B
Tue 05:56:50 PM -19.4660 -43.8530 160° South 340 391 11,600 -2,800 Descending FlightAware ADS-B
Tue 05:57:20 PM -19.5110 -43.8390 164° South 332 382 10,200 -2,182 Descending FlightAware ADS-B
Tue 05:57:45 PM -19.5460 -43.8270 162° South 301 346 9,600 -1,610 Descending FlightAware ADS-B
Tue 05:58:01 PM -19.5630 -43.8210 162° South 294 338 9,100 -2,229 Descending FlightAware ADS-B
Tue 05:58:20 PM -19.5920 -43.8110 162° South 293 337 8,300 -2,471 Descending FlightAware ADS-B
Tue 05:58:35 PM -19.6110 -43.8050 163° South 293 337 7,700 -2,057 Descending FlightAware ADS-B
Tue 05:58:55 PM -19.6380 -43.7960 163° South 294 338 7,100 -1,200 Descending FlightAware ADS-B
Tue 05:59:15 PM -19.6600 -43.7880 161° South 285 328 6,900 -240 Descending FlightAware ADS-B
Tue 05:59:45 PM -19.6990 -43.7740 161° South 258 297 6,900  Level FlightAware ADS-B
Tue 06:00:00 PM -19.7150 -43.7690 164° South 246 283 6,900  Level FlightAware ADS-B
Tue 06:00:10 PM -19.7250 -43.7660 164° South 241 277 6,900 -514 Level FlightAware ADS-B
Tue 06:00:35 PM -19.7480 -43.7800 210° Southwest 229 264 6,600 -857 Descending FlightAware ADS-B
Tue 06:00:45 PM -19.7510 -43.7900 252° West 229 264 6,400 -1,000 Descending FlightAware ADS-B
Tue 06:01:05 PM -19.7590 -43.8120 249° West 227 261 6,100 -900 Descending FlightAware ADS-B
Tue 06:01:25 PM -19.7650 -43.8330 253° West 221 254 5,800 -750 Descending FlightAware ADS-B
Tue 06:01:45 PM -19.7600 -43.8510 286° West 209 241 5,600 -774 Descending FlightAware ADS-B
Tue 06:01:56 PM -19.7530 -43.8590 313° West 209 241 5,400 -1,029 Descending FlightAware ADS-B
Tue 06:02:20 PM -19.7350 -43.8750 320° Northwest 193 222 5,000 -1,067 Descending FlightAware ADS-B
Tue 06:02:41 PM -19.7220 -43.8870 319° Northwest 181 208 4,600 -1,067 Descending FlightAware ADS-B
Tue 06:03:05 PM -19.7060 -43.9020 319° Northwest 170 196 4,200 -955 Descending FlightAware ADS-B
Tue 06:03:25 PM -19.6950 -43.9120 319° Northwest 159 183 3,900 -800 Descending FlightAware ADS-B
Tue 06:03:35 PM -19.6890 -43.9170 322° Northwest 153 176 3,800 -800 Descending FlightAware ADS-B
Tue 06:03:55 PM -19.6790 -43.9260 320° Northwest 146 168 3,500 -783 Descending FlightAware ADS-B
Tue 06:04:21 PM -19.6660 -43.9390 317° Northwest 151 174 3,200 -750 Descending FlightAware ADS-B
Tue 06:04:35 PM -19.6580 -43.9460 321° Northwest 152 175 3,000 -882 Descending FlightAware ADS-B
Tue 06:04:55 PM -19.6480 -43.9560 317° Northwest 148 170 2,700 -900 Descending FlightAware ADS-B
Tue 06:05:15 PM -19.6370 -43.9660 319° Northwest 140 161 -8,100 Descending FlightAware ADS-B

Login

Don't have an account? Register now (free) for customized features, flight alerts, and more!